Miami, FL

12:24 PM EDT on May 06, 2015 (GMT -0400)
DV Floral Group | | Change Station
CLOSE
Current Station
Personal Weather Station
Location: Miami, FL
Elevation: 26 ft
Nearby Weather Stations

Elev 26 ft 25.79 °N, 80.35 °W | Updated 24 seconds ago

Mostly Cloudy
Mostly Cloudy
79.4 °F
Feels Like 82 °F
N
6.0
Wind Variable Wind from NW
Gusts 12.0 mph

Today
High -- | Low -- °F
--% Chance of Precip.
Yesterday
High -- | Low -- °F
Precip. -- in
6:40 AM 7:54 PM
Waning Gibbous, 93% visible
Pressure 30.06 in
Visibility 10.0 miles
Clouds Mostly Cloudy 2200 ft
Mostly Cloudy 4000 ft
Mostly Cloudy 12000 ft
Heat Index 82 °F
Dew Point 68 °F
Humidity 69%
Rainfall 0.00 in
Snow Depth Not available.
UV 7 out of 12
Pollen 2.90 out of 12
Air Quality Not available.
Flu Activity Local Activity
METAR KMIA 061553Z 31007KT 10SM BKN022TCU BKN040 BKN120 26/19 A3006 RMK AO2 SLP178 TCU OHD-E-S-SW T02560189

More Conditions Fewer Conditions

Pressure 30.06 in
Visibility 10.0 miles
Clouds Mostly Cloudy 2200 ft
Mostly Cloudy 4000 ft
Mostly Cloudy 12000 ft
Heat Index 82 °F
Dew Point 68 °F
Humidity 69%
Rainfall 0.00 in
Snow Depth Not available.
UV 7 out of 12
Pollen 2.90 out of 12
Air Quality Not available.
Flu Activity Local Activity
METAR KMIA 061553Z 31007KT 10SM BKN022TCU BKN040 BKN120 26/19 A3006 RMK AO2 SLP178 TCU OHD-E-S-SW T02560189

More Conditions Fewer Conditions

10-Day Weather Forecast

Almanac

Astronomy

May. 06, 2015 Rise Set
Actual Time
Civil Twilight
Nautical Twilight
Astronomical Twilight
Moon
Length of Visible Light
Length of Day
Tomorrow will be .
, % of the Moon is Illuminated

Today's Extremes

State Highs State Lows

Community

WunderPhotos

Upload Photos

1,818,945 photos uploaded!

WunderBlogs® & News

Nearby

Air Quality

  Air Quality AQ Index Pollutant
Not available.

Snow Depth

Station Depth Elevation

Earthquake Activity

City Distance Mag. Time & Date
Minimum magnitude displayed is 2.5.

Coastal Water Temperatures

Place Temperature

Stations

Nearby Weather Stations

Station Location Temp. Windchill Dew Point Humidity Wind Precip. Elev Updated Type